Langkawi International Airport Langkawi MY
ICAO: WMKL
IATA: LGK
Category: Medium
Scheduled Services: Yes

Elevation: 29 ft
TransAlt. 11000 ft.

Airport Communications:
APP:119.4
ATIS:128.2
GND:121.8
TWR:118.5

WMKL Zoom In..

If you have problems with the map follow the link
https://www.worldairports.se/pages/airport.php?
ICAO=WMKL

Runways:

(A) RW 03 length 12500 ft width 148 ft
ILS 110.70 / hdg 34

(B) RW 21 length 12500 ft width 148 ft
---- / hdg 214

Location; WMKL
Day. 05 / Time. 15.00 Zulu
* QNH: 1013
* Temperature: 27° c. 80.6°f.
* Wind from: 030° Speed 06 kn.
Dewpoint: 23° c.
Visibility: 10 km or more.
Clouds: Few 2600 ft.

WMKL 051500Z 03006KT 340V100 9999 FEW026 27/23 Q1013


Wind From 030°
Speed 06 kn.

 
 
jpsmedia worldairports.se 2019   terms of use